createdAt,value
2019-03-01T00:01:15.268Z,7.80
2019-03-01T00:03:43.779Z,6.17
2019-03-01T00:06:24.127Z,9.50
2019-03-01T00:09:01.215Z,10.87
2019-03-01T00:11:41.375Z,14.50
2019-03-01T00:14:24.912Z,11.43
2019-03-01T00:16:58.998Z,18.20
2019-03-01T00:19:42.477Z,14.30
2019-03-01T00:22:26.044Z,12.23
2019-03-01T00:24:57.556Z,14.33
2019-03-01T00:27:37.986Z,13.00
2019-03-01T00:30:27.460Z,14.80
2019-03-01T00:33:01.700Z,11.50
2019-03-01T00:35:51.815Z,15.13
2019-03-01T00:38:29.169Z,15.70
2019-03-01T00:41:21.686Z,17.13
2019-03-01T00:44:20.230Z,22.30
2019-03-01T00:46:48.684Z,9.57
2019-03-01T00:49:17.174Z,17.00
2019-03-01T00:51:45.631Z,12.93
2019-03-01T00:54:14.133Z,12.60
2019-03-01T00:56:42.643Z,9.97
2019-03-01T00:59:11.052Z,16.40
2019-03-01T01:01:39.499Z,14.33
2019-03-01T01:04:07.996Z,22.00
2019-03-01T01:06:36.439Z,17.03
2019-03-01T01:09:06.812Z,13.60
2019-03-01T01:11:35.224Z,12.97
2019-03-01T01:14:03.736Z,15.40
2019-03-01T01:16:32.195Z,14.63
2019-03-01T01:19:00.643Z,16.37
2019-03-01T01:21:29.071Z,11.07
2019-03-01T01:23:57.513Z,12.40
2019-03-01T01:26:26.117Z,12.33
2019-03-01T01:28:54.534Z,10.70
2019-03-01T01:31:23.049Z,12.63
2019-03-01T01:33:51.514Z,6.77
2019-03-01T01:36:20.007Z,17.53
2019-03-01T01:38:48.438Z,8.87
2019-03-01T01:41:16.866Z,15.40
2019-03-01T01:43:45.307Z,17.27
2019-03-01T01:46:13.900Z,15.40
2019-03-01T01:48:43.148Z,11.83
2019-03-01T01:51:11.584Z,13.87
2019-03-01T01:53:40.085Z,14.13
2019-03-01T01:56:09.124Z,15.50
2019-03-01T01:58:37.638Z,8.27
2019-03-01T02:01:06.089Z,13.00
2019-03-01T02:03:34.592Z,14.67
2019-03-01T02:06:03.009Z,15.00
2019-03-01T02:08:31.621Z,8.93
2019-03-01T02:11:00.132Z,12.73
2019-03-01T02:13:28.656Z,7.90
2019-03-01T02:15:57.091Z,22.50
2019-03-01T02:18:25.571Z,13.90
2019-03-01T02:20:54.020Z,10.57
2019-03-01T02:23:22.481Z,6.90
2019-03-01T02:25:51.572Z,11.00
2019-03-01T02:28:20.061Z,16.93
2019-03-01T02:30:51.897Z,11.03
2019-03-01T02:33:20.445Z,13.83
2019-03-01T02:35:48.933Z,16.43
2019-03-01T02:38:17.453Z,32.43
2019-03-01T02:40:45.972Z,18.97
2019-03-01T02:43:14.626Z,17.57
2019-03-01T02:45:43.104Z,14.37
2019-03-01T02:48:11.515Z,16.00
2019-03-01T02:50:40.074Z,13.80
2019-03-01T02:53:08.499Z,11.97
2019-03-01T02:55:36.942Z,15.20
2019-03-01T02:58:05.574Z,11.40
2019-03-01T03:00:35.717Z,15.40
2019-03-01T03:03:04.210Z,15.57
2019-03-01T03:05:34.331Z,12.80
2019-03-01T03:08:04.437Z,31.43
2019-03-01T03:10:32.852Z,28.87
2019-03-01T03:13:03.832Z,19.17
2019-03-01T03:15:39.649Z,14.90
2019-03-01T03:18:08.144Z,13.27
2019-03-01T03:20:36.615Z,22.17
2019-03-01T03:23:05.221Z,13.17
2019-03-01T03:25:33.653Z,9.30
2019-03-01T03:28:02.081Z,15.10
2019-03-01T03:30:30.533Z,10.47
2019-03-01T03:32:58.937Z,45.27
2019-03-01T03:35:27.417Z,18.37
2019-03-01T03:37:55.846Z,13.27
2019-03-01T03:40:24.266Z,10.07
2019-03-01T03:42:52.833Z,10.57
2019-03-01T03:45:21.368Z,13.03
2019-03-01T03:47:49.854Z,17.23
2019-03-01T03:50:18.387Z,10.90
2019-03-01T03:52:46.856Z,17.43
2019-03-01T03:55:19.081Z,15.23
2019-03-01T03:57:47.814Z,9.63
2019-03-01T04:00:24.315Z,17.13
2019-03-01T04:02:52.874Z,14.17
2019-03-01T04:05:21.381Z,21.23
2019-03-01T04:07:49.841Z,16.67
2019-03-01T04:10:18.394Z,13.67
2019-03-01T04:12:46.838Z,21.00
2019-03-01T04:15:16.573Z,18.10
2019-03-01T04:17:45.180Z,12.10
2019-03-01T04:20:19.268Z,22.67
2019-03-01T04:22:47.695Z,15.70
2019-03-01T04:25:16.090Z,28.10
2019-03-01T04:27:44.629Z,16.50
2019-03-01T04:30:17.379Z,15.70
2019-03-01T04:32:45.789Z,16.60
2019-03-01T04:35:14.889Z,28.90
2019-03-01T04:37:43.317Z,26.53
2019-03-01T04:40:13.817Z,21.87
2019-03-01T04:42:42.373Z,12.63
2019-03-01T04:45:15.399Z,9.43
2019-03-01T04:47:43.950Z,9.18
2019-03-01T04:50:13.086Z,7.67
2019-03-01T04:52:41.779Z,6.10
2019-03-01T04:55:15.265Z,4.93
2019-03-01T04:57:43.756Z,5.40
2019-03-01T05:00:20.275Z,9.43
2019-03-01T05:02:48.744Z,7.57
2019-03-01T05:05:17.420Z,12.03
2019-03-01T05:07:46.212Z,9.00
2019-03-01T05:10:15.585Z,5.43
2019-03-01T05:12:44.113Z,11.00
2019-03-01T05:15:21.582Z,9.93
2019-03-01T05:17:50.150Z,7.80
2019-03-01T05:20:18.640Z,8.53
2019-03-01T05:22:47.150Z,13.47
2019-03-01T05:25:15.658Z,10.70
2019-03-01T05:27:44.089Z,14.40
2019-03-01T05:30:15.268Z,14.23
2019-03-01T05:32:43.676Z,13.07
2019-03-01T05:35:12.284Z,13.47
2019-03-01T05:37:40.770Z,11.90
2019-03-01T05:40:13.789Z,12.50
2019-03-01T05:42:42.281Z,13.57
2019-03-01T05:45:13.617Z,15.63
2019-03-01T05:47:42.068Z,19.60
2019-03-01T05:50:13.128Z,17.47
2019-03-01T05:52:41.685Z,16.50
2019-03-01T05:55:11.529Z,18.23
2019-03-01T05:58:16.723Z,18.03
2019-03-01T06:00:45.771Z,24.37
2019-03-01T06:03:41.233Z,18.80
2019-03-01T06:06:15.559Z,24.87
2019-03-01T06:08:47.071Z,27.13
2019-03-01T06:11:18.579Z,28.07
2019-03-01T06:14:13.610Z,27.40
2019-03-01T06:16:56.819Z,26.90
2019-03-01T06:19:43.212Z,25.57
2019-03-01T06:22:46.297Z,27.73
2019-03-01T06:25:23.587Z,25.03
2019-03-01T06:28:23.455Z,24.80
2019-03-01T06:31:09.715Z,29.90
2019-03-01T06:34:00.618Z,35.77
2019-03-01T06:36:48.471Z,29.87
2019-03-01T06:39:27.256Z,30.80
2019-03-01T06:42:08.970Z,32.60
2019-03-01T06:44:58.080Z,29.40
2019-03-01T06:47:43.901Z,32.90
2019-03-01T06:50:16.663Z,32.90
2019-03-01T06:52:45.206Z,27.50
2019-03-01T06:55:22.471Z,27.70
2019-03-01T06:57:50.963Z,26.17
2019-03-01T07:00:26.123Z,27.77
2019-03-01T07:02:58.637Z,32.13
2019-03-01T07:05:30.991Z,31.73
2019-03-01T07:08:01.047Z,32.40
2019-03-01T07:10:29.931Z,34.37
2019-03-01T07:12:59.302Z,32.50
2019-03-01T07:15:31.156Z,31.60
2019-03-01T07:17:59.908Z,35.40
2019-03-01T07:20:28.699Z,35.13
2019-03-01T07:23:00.609Z,38.67
2019-03-01T07:25:31.588Z,43.93
2019-03-01T07:28:00.149Z,49.80
2019-03-01T07:30:28.633Z,63.73
2019-03-01T07:33:01.264Z,55.00
2019-03-01T07:35:33.119Z,64.22
2019-03-01T07:38:01.564Z,74.87
2019-03-01T07:40:29.966Z,83.33
2019-03-01T07:43:01.551Z,87.77
2019-03-01T07:45:34.685Z,95.50
2019-03-01T07:48:04.357Z,118.97
2019-03-01T07:50:32.893Z,116.03
2019-03-01T07:53:03.735Z,112.27
2019-03-01T07:55:37.666Z,118.07
2019-03-01T07:58:10.780Z,131.00
2019-03-01T08:00:43.358Z,122.27
2019-03-01T08:03:14.783Z,109.90
2019-03-01T08:05:41.956Z,129.53
2019-03-01T08:08:11.201Z,108.37
2019-03-01T08:10:44.123Z,137.93
2019-03-01T08:13:17.516Z,134.97
2019-03-01T08:15:44.968Z,147.57
2019-03-01T08:18:12.961Z,152.37
2019-03-01T08:20:45.621Z,145.40
2019-03-01T08:23:18.897Z,156.57
2019-03-01T08:25:47.513Z,170.27
2019-03-01T08:28:18.474Z,155.30
2019-03-01T08:30:47.737Z,162.67
2019-03-01T08:33:19.851Z,169.07
2019-03-01T08:35:49.495Z,169.67
2019-03-01T08:38:17.966Z,173.30
2019-03-01T08:40:50.136Z,174.23
2019-03-01T08:43:20.516Z,164.77
2019-03-01T08:45:50.002Z,171.17
2019-03-01T08:48:21.159Z,166.00
2019-03-01T08:50:49.594Z,177.43
2019-03-01T08:53:23.909Z,198.00
2019-03-01T08:55:56.301Z,177.00
2019-03-01T08:58:33.620Z,176.55
2019-03-01T09:01:08.358Z,172.20
2019-03-01T09:03:53.893Z,159.57
2019-03-01T09:06:23.187Z,161.80
2019-03-01T09:08:51.607Z,137.70
2019-03-01T09:11:21.678Z,136.37
2019-03-01T09:13:51.382Z,158.10
2019-03-01T09:16:20.103Z,149.37
2019-03-01T09:18:50.088Z,161.30
2019-03-01T09:21:21.030Z,143.93
2019-03-01T09:23:52.255Z,166.50
2019-03-01T09:26:20.690Z,164.93
2019-03-01T09:28:49.837Z,150.70
2019-03-01T09:31:22.129Z,127.30
2019-03-01T09:33:56.465Z,118.57
2019-03-01T09:36:23.863Z,137.97
2019-03-01T09:38:53.179Z,141.22
2019-03-01T09:41:23.453Z,141.77
2019-03-01T09:43:59.728Z,140.23
2019-03-01T09:46:32.984Z,148.13
2019-03-01T09:49:03.434Z,135.93
2019-03-01T09:51:32.240Z,140.57
2019-03-01T09:54:00.787Z,126.33
2019-03-01T09:56:31.510Z,134.17
2019-03-01T09:58:59.929Z,145.70
2019-03-01T10:01:28.569Z,167.77
2019-03-01T10:03:59.125Z,168.63
2019-03-01T10:06:37.656Z,182.13
2019-03-01T10:08:58.985Z,181.95
2019-03-01T10:11:27.599Z,211.70
2019-03-01T10:14:01.268Z,190.63
2019-03-01T10:16:33.441Z,177.93
2019-03-01T10:19:01.989Z,179.47
2019-03-01T10:21:30.808Z,184.77
2019-03-01T10:24:01.820Z,186.57
2019-03-01T10:26:34.323Z,161.83
2019-03-01T10:29:02.979Z,169.43
2019-03-01T10:31:31.868Z,163.10
2019-03-01T10:34:04.608Z,174.95
2019-03-01T10:36:35.053Z,169.62
2019-03-01T10:39:05.539Z,162.87
2019-03-01T10:41:34.261Z,145.77
2019-03-01T10:44:03.284Z,153.37
2019-03-01T10:46:35.851Z,149.93
2019-03-01T10:49:04.727Z,132.30
2019-03-01T10:51:33.543Z,154.27
2019-03-01T10:54:03.233Z,128.05
2019-03-01T10:56:32.898Z,132.57
2019-03-01T10:59:01.880Z,132.87
2019-03-01T11:01:30.943Z,159.37
2019-03-01T11:04:03.483Z,145.77
2019-03-01T11:06:32.104Z,134.13
2019-03-01T11:09:00.910Z,131.63
2019-03-01T11:11:34.117Z,137.10
2019-03-01T11:14:06.373Z,141.73
2019-03-01T11:16:38.404Z,126.77
2019-03-01T11:19:09.375Z,132.30
2019-03-01T11:21:37.064Z,147.73
2019-03-01T11:24:07.137Z,150.63
2019-03-01T11:26:39.773Z,139.47
2019-03-01T11:29:11.237Z,126.27
2019-03-01T11:31:39.183Z,120.83
2019-03-01T11:34:13.283Z,132.43
2019-03-01T11:36:44.708Z,133.93
2019-03-01T11:39:15.333Z,143.87
2019-03-01T11:41:48.725Z,125.23
2019-03-01T11:44:17.141Z,117.73
2019-03-01T11:46:45.929Z,103.35
2019-03-01T11:49:16.149Z,98.22
2019-03-01T11:51:45.777Z,102.85
2019-03-01T11:54:14.504Z,96.90
2019-03-01T11:56:44.735Z,102.00
2019-03-01T11:59:16.413Z,106.10
2019-03-01T12:01:48.225Z,103.30
2019-03-01T12:04:17.116Z,99.83
2019-03-01T12:06:45.678Z,86.80
2019-03-01T12:09:15.799Z,76.20
2019-03-01T12:11:44.664Z,80.20
2019-03-01T12:14:13.241Z,74.58
2019-03-01T12:16:44.170Z,92.82
2019-03-01T12:19:12.594Z,76.67
2019-03-01T12:21:41.109Z,91.50
2019-03-01T12:24:11.663Z,83.67
2019-03-01T12:26:44.797Z,93.30
2019-03-01T12:29:13.230Z,104.50
2019-03-01T12:31:41.677Z,89.23
2019-03-01T12:34:14.046Z,89.07
2019-03-01T12:36:47.245Z,88.70
2019-03-01T12:39:22.935Z,91.33
2019-03-01T12:41:57.181Z,93.03
2019-03-01T12:44:32.062Z,92.13
2019-03-01T12:47:04.504Z,80.50
2019-03-01T12:49:38.760Z,99.87
2019-03-01T12:52:12.417Z,94.37
2019-03-01T12:54:44.890Z,92.70
2019-03-01T12:57:21.076Z,110.63
2019-03-01T12:59:59.047Z,124.90
2019-03-01T13:02:34.909Z,110.90
2019-03-01T13:05:08.416Z,102.37
2019-03-01T13:07:38.412Z,101.57
2019-03-01T13:10:16.205Z,111.27
2019-03-01T13:12:46.138Z,91.60
2019-03-01T13:15:20.695Z,131.73
2019-03-01T13:17:57.029Z,112.93
2019-03-01T13:20:29.973Z,99.87
2019-03-01T13:23:00.899Z,114.47
2019-03-01T13:25:34.336Z,94.13
2019-03-01T13:28:03.145Z,115.80
2019-03-01T13:30:35.326Z,98.52
2019-03-01T13:33:03.587Z,86.40
2019-03-01T13:35:37.715Z,81.87
2019-03-01T13:38:10.751Z,88.73
2019-03-01T13:40:43.297Z,81.17
2019-03-01T13:43:11.727Z,81.10
2019-03-01T13:45:40.261Z,71.00
2019-03-01T13:48:15.805Z,72.53
2019-03-01T13:50:45.363Z,76.17
2019-03-01T13:53:15.534Z,73.93
2019-03-01T13:55:44.137Z,94.57
2019-03-01T13:58:13.004Z,81.83
2019-03-01T14:00:48.827Z,75.13
2019-03-01T14:03:24.292Z,68.70
2019-03-01T14:05:55.891Z,71.23
2019-03-01T14:08:27.211Z,64.70
2019-03-01T14:10:56.059Z,86.30
2019-03-01T14:13:24.965Z,88.87
2019-03-01T14:15:54.996Z,70.63
2019-03-01T14:18:27.716Z,67.20
2019-03-01T14:20:58.152Z,58.73
2019-03-01T14:23:26.491Z,37.33
2019-03-01T14:25:56.988Z,33.28
2019-03-01T14:28:27.747Z,29.53
2019-03-01T14:30:56.791Z,34.83
2019-03-01T14:33:25.212Z,30.10
2019-03-01T14:35:53.732Z,26.03
2019-03-01T14:38:22.147Z,28.07
2019-03-01T14:40:50.602Z,23.07
2019-03-01T14:43:20.268Z,35.50
2019-03-01T14:45:49.191Z,54.00
2019-03-01T14:48:17.640Z,60.63
2019-03-01T14:50:51.278Z,75.20
2019-03-01T14:53:20.162Z,74.63
2019-03-01T14:56:09.840Z,99.00
2019-03-01T14:58:50.111Z,74.80
2019-03-01T15:01:27.717Z,89.33
2019-03-01T15:03:56.308Z,84.30
2019-03-01T15:06:24.749Z,78.97
2019-03-01T15:08:53.233Z,91.20
2019-03-01T15:11:22.032Z,98.73
2019-03-01T15:13:50.597Z,111.53
2019-03-01T15:16:19.173Z,80.37
2019-03-01T15:18:48.455Z,78.87
2019-03-01T15:21:16.888Z,86.02
2019-03-01T15:23:45.848Z,91.00
2019-03-01T15:26:14.790Z,68.40
2019-03-01T15:28:53.623Z,81.93
2019-03-01T15:31:18.894Z,80.40
2019-03-01T15:33:47.926Z,89.40
2019-03-01T15:36:17.788Z,87.83
2019-03-01T15:38:47.235Z,88.40
2019-03-01T15:41:15.718Z,95.20
2019-03-01T15:43:44.159Z,113.87
2019-03-01T15:46:14.454Z,90.33
2019-03-01T15:48:43.248Z,95.77
2019-03-01T15:51:11.716Z,87.33
2019-03-01T15:53:40.134Z,90.07
2019-03-01T15:56:08.653Z,77.90
2019-03-01T15:58:37.076Z,84.70
2019-03-01T16:01:11.042Z,88.73
2019-03-01T16:03:40.209Z,79.12
2019-03-01T16:06:10.600Z,82.07
2019-03-01T16:08:48.019Z,67.93
2019-03-01T16:11:19.235Z,60.20
2019-03-01T16:13:51.993Z,90.50
2019-03-01T16:16:22.232Z,59.93
2019-03-01T16:18:51.354Z,66.43
2019-03-01T16:21:20.415Z,82.83
2019-03-01T16:23:49.057Z,65.50
2019-03-01T16:26:17.875Z,58.67
2019-03-01T16:28:46.289Z,50.90
2019-03-01T16:31:14.786Z,50.50
2019-03-01T16:33:43.234Z,56.60
2019-03-01T16:36:13.358Z,48.97
2019-03-01T16:38:47.424Z,58.40
2019-03-01T16:41:12.235Z,54.23
2019-03-01T16:43:40.742Z,46.67
2019-03-01T16:46:09.198Z,54.37
2019-03-01T16:48:37.743Z,45.13
2019-03-01T16:51:06.298Z,51.67
2019-03-01T16:53:36.590Z,53.43
2019-03-01T16:56:05.044Z,44.80
2019-03-01T16:58:33.564Z,53.57
2019-03-01T17:01:02.053Z,56.30
2019-03-01T17:03:30.525Z,50.90
2019-03-01T17:05:58.975Z,53.23
2019-03-01T17:08:27.453Z,52.37
2019-03-01T17:10:55.951Z,84.33
2019-03-01T17:13:27.035Z,55.43
2019-03-01T17:15:54.553Z,50.77
2019-03-01T17:18:23.077Z,62.13
2019-03-01T17:20:51.529Z,44.73
2019-03-01T17:23:20.019Z,41.47
2019-03-01T17:25:48.746Z,41.83
2019-03-01T17:28:22.629Z,50.80
2019-03-01T17:30:50.593Z,55.27
2019-03-01T17:33:17.789Z,47.30
2019-03-01T17:35:46.233Z,47.37
2019-03-01T17:38:14.685Z,43.50
2019-03-01T17:40:43.192Z,52.93
2019-03-01T17:43:11.629Z,57.57
2019-03-01T17:45:40.126Z,39.10
2019-03-01T17:48:08.539Z,59.43
2019-03-01T17:50:41.718Z,54.03
2019-03-01T17:53:10.474Z,46.03
2019-03-01T17:55:39.040Z,51.50
2019-03-01T17:58:08.991Z,47.60
2019-03-01T18:00:42.083Z,52.73
2019-03-01T18:03:10.673Z,47.17
2019-03-01T18:05:40.522Z,63.07
2019-03-01T18:08:09.332Z,84.43
2019-03-01T18:10:37.965Z,83.90
2019-03-01T18:13:06.504Z,49.67
2019-03-01T18:15:35.030Z,47.10
2019-03-01T18:18:03.550Z,55.87
2019-03-01T18:20:34.029Z,46.93
2019-03-01T18:23:03.140Z,53.07
2019-03-01T18:25:31.703Z,41.20
2019-03-01T18:28:00.191Z,58.03
2019-03-01T18:30:36.118Z,55.73
2019-03-01T18:33:04.781Z,47.40
2019-03-01T18:35:33.206Z,43.53
2019-03-01T18:38:01.630Z,52.30
2019-03-01T18:40:30.195Z,47.17
2019-03-01T18:42:58.701Z,51.80
2019-03-01T18:45:27.889Z,57.03
2019-03-01T18:47:56.384Z,60.17
2019-03-01T18:50:36.339Z,59.17
2019-03-01T18:53:04.907Z,44.87
2019-03-01T18:55:33.347Z,62.83
2019-03-01T18:58:01.883Z,64.00
2019-03-01T19:00:36.907Z,54.37
2019-03-01T19:03:06.328Z,56.37
2019-03-01T19:05:36.780Z,61.53
2019-03-01T19:08:06.119Z,51.17
2019-03-01T19:10:35.394Z,45.50
2019-03-01T19:13:04.051Z,52.30
2019-03-01T19:15:32.552Z,47.83
2019-03-01T19:18:01.256Z,61.40
2019-03-01T19:20:32.027Z,62.67
2019-03-01T19:23:01.343Z,59.50
2019-03-01T19:25:29.883Z,51.33
2019-03-01T19:27:58.293Z,53.60
2019-03-01T19:30:26.877Z,60.70
2019-03-01T19:32:55.298Z,51.20
2019-03-01T19:35:28.463Z,49.17
2019-03-01T19:37:53.956Z,44.47
2019-03-01T19:40:23.565Z,43.37
2019-03-01T19:42:52.136Z,37.90
2019-03-01T19:45:20.793Z,45.97
2019-03-01T19:47:49.303Z,51.67
2019-03-01T19:50:21.811Z,45.13
2019-03-01T19:52:50.501Z,34.63
2019-03-01T19:55:19.333Z,35.70
2019-03-01T19:57:47.779Z,41.10
2019-03-01T20:00:19.037Z,29.90
2019-03-01T20:02:47.469Z,29.43
2019-03-01T20:05:18.271Z,27.93
2019-03-01T20:07:46.670Z,45.27
2019-03-01T20:10:17.066Z,61.13
2019-03-01T20:12:45.838Z,31.93
2019-03-01T20:15:20.567Z,23.60
2019-03-01T20:17:49.247Z,27.53
2019-03-01T20:20:20.217Z,31.47
2019-03-01T20:22:50.543Z,28.77
2019-03-01T20:25:19.475Z,26.77
2019-03-01T20:27:47.878Z,38.10
2019-03-01T20:30:19.421Z,25.60
2019-03-01T20:32:50.920Z,38.30
2019-03-01T20:35:18.258Z,31.63
2019-03-01T20:37:46.743Z,43.03
2019-03-01T20:40:15.916Z,24.70
2019-03-01T20:42:45.573Z,30.47
2019-03-01T20:45:26.026Z,38.00
2019-03-01T20:47:53.509Z,28.53
2019-03-01T20:50:23.088Z,40.73
2019-03-01T20:52:51.585Z,33.73
2019-03-01T20:55:20.032Z,43.40
2019-03-01T20:57:48.552Z,32.23
2019-03-01T21:00:27.331Z,34.67
2019-03-01T21:02:56.835Z,23.73
2019-03-01T21:05:29.192Z,23.30
2019-03-01T21:07:55.478Z,20.73
2019-03-01T21:10:25.237Z,19.10
2019-03-01T21:12:53.659Z,23.87
2019-03-01T21:15:22.219Z,20.57
2019-03-01T21:17:52.851Z,16.60
2019-03-01T21:20:21.105Z,24.03
2019-03-01T21:22:49.565Z,15.80
2019-03-01T21:25:23.041Z,16.82
2019-03-01T21:27:51.477Z,17.63
2019-03-01T21:30:25.194Z,21.10
2019-03-01T21:32:53.634Z,22.03
2019-03-01T21:35:22.299Z,17.07
2019-03-01T21:37:51.365Z,20.73
2019-03-01T21:40:20.188Z,22.03
2019-03-01T21:42:48.623Z,21.20
2019-03-01T21:45:21.515Z,18.97
2019-03-01T21:47:49.053Z,18.77
2019-03-01T21:50:17.645Z,23.37
2019-03-01T21:52:46.210Z,35.77
2019-03-01T21:55:17.318Z,19.47
2019-03-01T21:57:45.838Z,17.23
2019-03-01T22:00:17.358Z,19.87
2019-03-01T22:02:48.822Z,21.47
2019-03-01T22:05:16.075Z,13.67
2019-03-01T22:07:44.517Z,25.70
2019-03-01T22:10:14.327Z,14.33
2019-03-01T22:12:43.068Z,13.87
2019-03-01T22:15:27.552Z,21.27
2019-03-01T22:17:56.284Z,16.73
2019-03-01T22:20:25.118Z,17.00
2019-03-01T22:22:53.636Z,21.00
2019-03-01T22:25:22.222Z,19.47
2019-03-01T22:27:50.647Z,31.60
2019-03-01T22:30:30.260Z,21.13
2019-03-01T22:32:58.774Z,20.90
2019-03-01T22:35:27.428Z,21.27
2019-03-01T22:37:55.932Z,22.67
2019-03-01T22:40:27.906Z,24.77
2019-03-01T22:42:54.816Z,35.10
2019-03-01T22:45:23.685Z,26.30
2019-03-01T22:47:52.363Z,26.13
2019-03-01T22:50:21.154Z,27.53
2019-03-01T22:52:49.668Z,26.90
2019-03-01T22:55:18.868Z,36.00
2019-03-01T22:57:47.611Z,31.23
2019-03-01T23:00:29.795Z,31.80
2019-03-01T23:02:58.537Z,27.80
2019-03-01T23:05:27.191Z,39.57
2019-03-01T23:07:56.926Z,35.50
2019-03-01T23:10:25.896Z,31.80
2019-03-01T23:12:54.337Z,34.10
2019-03-01T23:15:22.745Z,27.23
2019-03-01T23:17:51.172Z,31.00
2019-03-01T23:20:19.597Z,46.57
2019-03-01T23:22:48.059Z,29.13
2019-03-01T23:25:16.469Z,34.87
2019-03-01T23:27:44.927Z,36.37
2019-03-01T23:30:13.426Z,39.57
2019-03-01T23:32:41.873Z,34.80
2019-03-01T23:35:10.390Z,35.40
2019-03-01T23:37:39.864Z,33.97
2019-03-01T23:40:09.109Z,33.30
2019-03-01T23:42:37.608Z,37.50
2019-03-01T23:45:13.671Z,33.73
2019-03-01T23:47:40.846Z,39.37
2019-03-01T23:50:11.943Z,38.53
2019-03-01T23:52:40.389Z,42.43
2019-03-01T23:55:09.625Z,49.77
2019-03-01T23:57:40.986Z,40.90
